Time;durP1;ratioP1;P1;durP2;ratioP2;P2;SDS_P1;SDS_P2;PMS_P1;PMS_P2;Temp;Humidity;BMP_temperature;BMP_pressure;BME280_temperature;BME280_humidity;BME280_pressure;Samples;Min_cycle;Max_cycle;Signal;HPM_P1;HPM_P2
2021/04/02 00:00:50;;;;;;;37.90;23.80;;;16.80;74.20;;;;;;4964391;28;20214;-76
2021/04/02 00:03:25;;;;;;;37.80;21.30;;;16.70;74.60;;;;;;4961278;28;20487;-77
2021/04/02 00:05:52;;;;;;;31.77;19.53;;;16.70;75.20;;;;;;4962883;28;20552;-76
2021/04/02 00:08:20;;;;;;;31.83;20.77;;;16.60;76.10;;;;;;4964384;28;20465;-76
2021/04/02 00:10:51;;;;;;;34.10;20.50;;;16.60;76.50;;;;;;4963185;28;20588;-76
2021/04/02 00:13:19;;;;;;;28.07;19.77;;;16.50;77.60;;;;;;4963012;28;20548;-76
2021/04/02 00:15:47;;;;;;;30.30;18.73;;;16.40;78.40;;;;;;4962747;28;20486;-76
2021/04/02 00:18:13;;;;;;;26.23;18.53;;;16.50;78.80;;;;;;4963097;28;20525;-76
2021/04/02 00:20:39;;;;;;;25.40;17.00;;;16.30;79.40;;;;;;4963042;28;20492;-76
2021/04/02 00:23:06;;;;;;;23.27;16.23;;;16.30;80.50;;;;;;4964019;28;20877;-76
2021/04/02 00:25:32;;;;;;;25.93;14.70;;;16.20;80.50;;;;;;4963225;28;20221;-77
2021/04/02 00:27:58;;;;;;;19.40;13.60;;;16.20;81.00;;;;;;4963813;28;20435;-76
2021/04/02 00:30:28;;;;;;;20.17;13.37;;;16.10;81.40;;;;;;4963987;28;20462;-76
2021/04/02 00:32:54;;;;;;;15.90;11.83;;;16.10;81.60;;;;;;4963956;28;20234;-76
2021/04/02 00:35:20;;;;;;;14.60;11.20;;;16.00;81.90;;;;;;4962678;28;20480;-77
2021/04/02 00:37:45;;;;;;;20.00;12.83;;;15.90;82.40;;;;;;4963618;28;20211;-76
2021/04/02 00:40:14;;;;;;;15.27;10.90;;;15.90;83.00;;;;;;4964300;28;20213;-76
2021/04/02 00:42:40;;;;;;;12.20;10.80;;;15.90;82.90;;;;;;4961481;28;20190;-75
2021/04/02 00:45:07;;;;;;;16.70;10.60;;;15.90;83.70;;;;;;4964509;28;20846;-77
2021/04/02 00:47:32;;;;;;;17.47;10.47;;;15.80;84.50;;;;;;4960643;28;20194;-76
2021/04/02 00:49:58;;;;;;;12.90;9.30;;;15.80;84.90;;;;;;4962279;28;20536;-77
2021/04/02 00:52:24;;;;;;;12.13;9.47;;;15.80;85.70;;;;;;4963140;28;20205;-76
2021/04/02 00:54:49;;;;;;;14.20;10.20;;;15.70;86.30;;;;;;4963952;28;20186;-75
2021/04/02 00:57:15;;;;;;;12.70;9.90;;;15.70;86.30;;;;;;4961782;28;20673;-77
2021/04/02 00:59:42;;;;;;;18.60;10.27;;;15.70;87.00;;;;;;4962395;28;20345;-76
2021/04/02 01:02:07;;;;;;;10.87;9.20;;;15.60;87.20;;;;;;4960040;28;20197;-75
2021/04/02 01:04:33;;;;;;;13.30;9.33;;;15.60;87.30;;;;;;4963108;28;20517;-75
2021/04/02 01:06:59;;;;;;;12.93;9.60;;;15.50;87.20;;;;;;4962052;28;20199;-76
2021/04/02 01:09:25;;;;;;;10.43;8.13;;;15.40;86.80;;;;;;4961232;28;20234;-75
2021/04/02 01:11:50;;;;;;;9.43;8.37;;;15.40;86.60;;;;;;4962060;28;20438;-76
2021/04/02 01:14:16;;;;;;;11.13;7.70;;;15.30;87.00;;;;;;4963155;28;20202;-78
2021/04/02 01:16:44;;;;;;;14.53;8.80;;;15.20;87.20;;;;;;4947300;28;20268;-76
2021/04/02 01:19:37;;;;;;;15.13;7.13;;;15.10;87.70;;;;;;4961942;28;20214;-76
2021/04/02 01:22:18;;;;;;;12.53;7.00;;;15.10;88.10;;;;;;4961399;28;20445;-77
2021/04/02 01:25:11;;;;;;;14.07;6.70;;;15.00;86.20;;;;;;4963215;28;20437;-76
2021/04/02 01:27:55;;;;;;;7.40;6.30;;;14.90;85.20;;;;;;4927480;28;20445;-76
2021/04/02 01:30:22;;;;;;;6.60;5.97;;;14.80;84.30;;;;;;4965600;28;20466;-76
2021/04/02 01:32:51;;;;;;;9.63;6.60;;;14.80;85.10;;;;;;4962100;28;20773;-76
2021/04/02 01:35:40;;;;;;;9.07;6.03;;;14.80;84.60;;;;;;4961395;28;20449;-77
2021/04/02 01:38:12;;;;;;;8.73;6.23;;;14.80;84.00;;;;;;4961930;28;20531;-76
2021/04/02 01:40:44;;;;;;;7.23;6.53;;;14.70;81.50;;;;;;4962306;28;20453;-76
2021/04/02 01:43:14;;;;;;;8.33;5.30;;;14.60;79.00;;;;;;4962080;28;20442;-76
2021/04/02 01:45:41;;;;;;;7.60;5.60;;;14.60;77.60;;;;;;4963088;28;20477;-76
2021/04/02 01:48:09;;;;;;;6.87;6.17;;;14.60;76.40;;;;;;4962726;28;20438;-76
2021/04/02 01:50:38;;;;;;;7.43;5.40;;;14.50;75.30;;;;;;4961175;28;20548;-75
2021/04/02 01:53:05;;;;;;;6.00;5.50;;;14.50;74.70;;;;;;4946187;28;20461;-75
2021/04/02 01:55:31;;;;;;;5.93;5.33;;;14.50;72.90;;;;;;4960204;28;20530;-76
2021/04/02 01:57:58;;;;;;;8.03;5.20;;;14.40;72.20;;;;;;4962306;28;20430;-76
2021/04/02 02:00:32;;;;;;;6.17;5.50;;;14.30;71.60;;;;;;4961157;28;20238;-73
2021/04/02 02:03:00;;;;;;;6.97;6.27;;;14.30;71.50;;;;;;4963779;28;20500;-76
2021/04/02 02:05:27;;;;;;;5.30;4.90;;;14.30;70.60;;;;;;4961508;28;20473;-75
2021/04/02 02:07:54;;;;;;;5.33;4.83;;;14.30;70.90;;;;;;4963424;28;20864;-76
2021/04/02 02:10:21;;;;;;;6.07;5.47;;;14.20;70.40;;;;;;4961955;28;20994;-76
2021/04/02 02:12:48;;;;;;;7.00;5.30;;;14.10;70.30;;;;;;4959203;28;20454;-77
2021/04/02 02:15:16;;;;;;;5.83;5.23;;;14.00;71.10;;;;;;4962317;28;20445;-76
2021/04/02 02:17:47;;;;;;;6.63;4.53;;;13.90;71.10;;;;;;4961273;28;20552;-76
2021/04/02 02:20:14;;;;;;;6.23;5.00;;;13.90;71.90;;;;;;4960107;28;20998;-77
2021/04/02 02:22:41;;;;;;;5.43;4.77;;;13.90;71.10;;;;;;4961856;28;20454;-76
2021/04/02 02:25:08;;;;;;;5.40;4.60;;;13.90;71.60;;;;;;4962311;28;20482;-76
2021/04/02 02:27:36;;;;;;;7.00;4.73;;;13.80;71.50;;;;;;4962359;28;20467;-75
2021/04/02 02:30:11;;;;;;;5.63;5.00;;;13.70;71.40;;;;;;4960599;28;20553;-75
2021/04/02 02:32:37;;;;;;;5.93;5.30;;;13.60;70.80;;;;;;4959431;28;20446;-75
2021/04/02 02:35:06;;;;;;;5.43;4.90;;;13.60;70.80;;;;;;4964482;28;20532;-75
2021/04/02 02:37:38;;;;;;;5.33;4.63;;;13.50;70.90;;;;;;4966252;28;20441;-75
2021/04/02 02:40:20;;;;;;;15.03;6.03;;;13.50;70.60;;;;;;4966322;28;20450;-74
2021/04/02 02:42:47;;;;;;;6.40;5.57;;;13.40;70.70;;;;;;4963543;28;20462;-75
2021/04/02 02:45:13;;;;;;;5.93;5.30;;;13.40;69.90;;;;;;4964220;28;20539;-74
2021/04/02 02:47:39;;;;;;;9.57;5.60;;;13.30;69.70;;;;;;4966073;28;20438;-76
2021/04/02 02:50:11;;;;;;;5.80;4.70;;;13.20;69.00;;;;;;4965429;28;20206;-76
2021/04/02 02:52:39;;;;;;;8.80;4.90;;;13.10;68.20;;;;;;4963151;28;20500;-76
2021/04/02 02:55:07;;;;;;;5.30;4.90;;;13.00;68.40;;;;;;4948073;28;20445;-76
2021/04/02 02:57:35;;;;;;;5.50;5.00;;;13.00;68.20;;;;;;4947362;28;21284;-77
2021/04/02 03:00:11;;;;;;;5.03;4.63;;;13.00;67.40;;;;;;4964352;28;20471;-74
2021/04/02 03:02:37;;;;;;;5.20;4.70;;;12.90;67.20;;;;;;4963778;28;20512;-76
2021/04/02 03:05:05;;;;;;;5.13;4.63;;;12.80;66.30;;;;;;4963129;28;20470;-77
2021/04/02 03:07:32;;;;;;;5.60;4.93;;;12.70;66.30;;;;;;4963430;28;20484;-76
2021/04/02 03:09:59;;;;;;;6.20;4.60;;;12.70;65.90;;;;;;4943232;28;20472;-75
2021/04/02 03:12:27;;;;;;;4.90;4.50;;;12.60;66.50;;;;;;4964893;28;20460;-76
2021/04/02 03:14:53;;;;;;;5.17;4.77;;;12.60;66.60;;;;;;4964484;28;20442;-75
2021/04/02 03:17:21;;;;;;;7.13;4.53;;;12.50;65.90;;;;;;4946092;28;20461;-76
2021/04/02 03:19:49;;;;;;;9.30;3.87;;;12.50;66.00;;;;;;4963341;28;20616;-77
2021/04/02 03:22:15;;;;;;;7.70;3.97;;;12.40;66.20;;;;;;4962515;28;20450;-75
2021/04/02 03:24:42;;;;;;;5.90;4.33;;;12.40;66.90;;;;;;4962632;28;20828;-75
2021/04/02 03:27:09;;;;;;;6.33;4.43;;;12.40;67.20;;;;;;4964743;28;20444;-77
2021/04/02 03:29:35;;;;;;;5.40;4.90;;;12.40;66.90;;;;;;4962560;28;20956;-76
2021/04/02 03:32:07;;;;;;;5.57;5.03;;;12.30;67.10;;;;;;4963486;28;20441;-77
2021/04/02 03:34:34;;;;;;;10.40;5.30;;;12.30;67.20;;;;;;4964862;28;20529;-77
2021/04/02 03:37:02;;;;;;;8.23;5.40;;;12.30;67.10;;;;;;4965271;28;20448;-75
2021/04/02 03:39:31;;;;;;;6.33;5.13;;;12.20;67.10;;;;;;4962324;28;20565;-76
2021/04/02 03:42:00;;;;;;;5.33;4.83;;;12.10;68.30;;;;;;4964654;28;21135;-74
2021/04/02 03:44:29;;;;;;;7.13;5.33;;;12.10;67.80;;;;;;4964316;28;20505;-76
2021/04/02 03:46:58;;;;;;;6.17;5.30;;;12.20;67.70;;;;;;4963524;28;20501;-75
2021/04/02 03:49:29;;;;;;;5.63;5.00;;;12.00;67.80;;;;;;4965351;28;20469;-77
2021/04/02 03:51:58;;;;;;;6.33;4.57;;;11.90;67.70;;;;;;4958677;28;20952;-76
2021/04/02 03:54:27;;;;;;;6.20;5.47;;;11.90;68.60;;;;;;4964355;28;20826;-76
2021/04/02 03:56:56;;;;;;;4.80;4.40;;;11.80;68.60;;;;;;4964793;28;20442;-76
2021/04/02 03:59:24;;;;;;;8.93;4.67;;;11.80;69.00;;;;;;4964115;28;20469;-79
2021/04/02 04:01:52;;;;;;;6.00;5.03;;;11.80;69.60;;;;;;4943061;28;20454;-76
2021/04/02 04:04:23;;;;;;;5.83;5.30;;;11.80;70.00;;;;;;4963332;28;20456;-77
2021/04/02 04:06:55;;;;;;;9.40;5.40;;;11.70;69.60;;;;;;4965898;28;20470;-76
2021/04/02 04:09:22;;;;;;;6.67;5.13;;;11.70;69.40;;;;;;4962591;28;20532;-77
2021/04/02 04:11:51;;;;;;;6.60;5.23;;;11.60;70.00;;;;;;4964531;28;21017;-75
2021/04/02 04:14:18;;;;;;;6.87;5.57;;;11.60;69.80;;;;;;4963335;28;20450;-77
2021/04/02 04:16:46;;;;;;;6.53;5.03;;;11.60;70.50;;;;;;4964655;28;20462;-77
2021/04/02 04:19:15;;;;;;;11.00;5.33;;;11.60;71.40;;;;;;4963327;28;20504;-76
2021/04/02 04:21:43;;;;;;;6.50;5.40;;;11.50;70.30;;;;;;4960528;28;20434;-76
2021/04/02 04:24:17;;;;;;;5.93;5.27;;;11.60;70.60;;;;;;4935299;28;21066;-77
2021/04/02 04:26:44;;;;;;;12.03;5.90;;;11.50;71.20;;;;;;4964404;28;20484;-76
2021/04/02 04:29:14;;;;;;;6.10;5.13;;;11.40;70.70;;;;;;4964885;28;20533;-76
2021/04/02 04:31:41;;;;;;;8.57;5.47;;;11.30;71.80;;;;;;4962525;28;20557;-77
2021/04/02 04:34:08;;;;;;;6.47;5.33;;;11.20;71.80;;;;;;4965227;28;20436;-75
2021/04/02 04:36:34;;;;;;;5.07;4.67;;;11.10;71.90;;;;;;4961101;28;20457;-76
2021/04/02 04:39:01;;;;;;;9.93;5.50;;;11.00;72.60;;;;;;4944751;28;20446;-77
2021/04/02 04:41:27;;;;;;;7.73;4.90;;;10.90;73.20;;;;;;4964066;28;20433;-76
2021/04/02 04:43:56;;;;;;;8.63;5.77;;;10.80;74.10;;;;;;4961255;28;20481;-76
2021/04/02 04:46:21;;;;;;;6.53;5.93;;;10.80;74.90;;;;;;4962566;28;20855;-76
2021/04/02 04:48:47;;;;;;;5.93;5.27;;;10.80;75.00;;;;;;4963162;28;20493;-76
2021/04/02 04:51:17;;;;;;;6.67;5.33;;;10.80;75.40;;;;;;4945822;28;20249;-76
2021/04/02 04:53:45;;;;;;;6.10;5.50;;;10.80;76.00;;;;;;4960133;28;21003;-75
2021/04/02 04:56:13;;;;;;;5.43;4.93;;;10.70;76.10;;;;;;4961923;28;20800;-75
2021/04/02 04:58:41;;;;;;;6.17;5.57;;;10.70;76.80;;;;;;4963876;28;21220;-75
2021/04/02 05:01:08;;;;;;;9.50;6.77;;;10.70;77.00;;;;;;4959900;28;20476;-75
2021/04/02 05:03:36;;;;;;;6.40;5.70;;;10.60;77.70;;;;;;4944545;28;20461;-76
2021/04/02 05:06:02;;;;;;;7.93;6.20;;;10.70;78.40;;;;;;4960760;28;20469;-76
2021/04/02 05:08:36;;;;;;;8.17;6.50;;;10.70;78.90;;;;;;4962754;28;20991;-75
2021/04/02 05:11:03;;;;;;;7.33;5.93;;;10.60;79.80;;;;;;4938488;28;20517;-76
2021/04/02 05:13:32;;;;;;;11.13;6.70;;;10.70;80.80;;;;;;4964091;28;21003;-76
2021/04/02 05:15:59;;;;;;;6.83;5.33;;;10.60;80.80;;;;;;4962494;28;20501;-74
2021/04/02 05:18:27;;;;;;;6.87;5.73;;;10.60;81.80;;;;;;4960859;28;20446;-77
2021/04/02 05:20:53;;;;;;;7.87;5.80;;;10.60;82.60;;;;;;4960410;28;20465;-76
2021/04/02 05:23:19;;;;;;;9.83;6.07;;;10.60;82.70;;;;;;4948492;28;20473;-76
2021/04/02 05:25:44;;;;;;;6.43;5.40;;;10.60;84.20;;;;;;4963499;28;20532;-76
2021/04/02 05:28:10;;;;;;;6.50;5.80;;;10.50;84.20;;;;;;4964224;28;20201;-76
2021/04/02 05:30:37;;;;;;;9.37;5.40;;;10.50;85.50;;;;;;4960197;28;20260;-77
2021/04/02 05:33:04;;;;;;;12.37;6.37;;;10.40;85.60;;;;;;4964113;28;20256;-77
2021/04/02 05:35:30;;;;;;;9.00;6.87;;;10.40;86.10;;;;;;4943121;28;20438;-76
2021/04/02 05:37:56;;;;;;;9.33;6.60;;;10.40;86.70;;;;;;4962595;28;20447;-76
2021/04/02 05:40:22;;;;;;;7.97;6.00;;;10.40;87.10;;;;;;4963426;28;20528;-76
2021/04/02 05:43:13;;;;;;;7.07;6.07;;;10.50;87.40;;;;;;4960223;28;20450;-75
2021/04/02 05:45:40;;;;;;;7.63;6.83;;;10.50;87.80;;;;;;4961364;28;20922;-75
2021/04/02 05:48:08;;;;;;;7.80;6.10;;;10.50;88.10;;;;;;4961611;28;20445;-75
2021/04/02 05:50:35;;;;;;;6.77;6.17;;;10.50;88.30;;;;;;4960391;28;20845;-75
2021/04/02 05:53:06;;;;;;;9.10;6.00;;;10.50;88.30;;;;;;4963741;28;20452;-76
2021/04/02 05:55:51;;;;;;;9.80;6.07;;;10.60;88.50;;;;;;4959976;28;20524;-76
2021/04/02 05:58:18;;;;;;;9.17;6.70;;;10.60;88.60;;;;;;4960824;28;20456;-76
2021/04/02 06:00:44;;;;;;;8.33;5.60;;;10.60;88.60;;;;;;4961397;28;20527;-77
2021/04/02 06:03:10;;;;;;;6.47;5.77;;;10.60;88.10;;;;;;4959541;28;20442;-77
2021/04/02 06:05:36;;;;;;;7.17;6.33;;;10.60;87.70;;;;;;4962499;28;20473;-77
2021/04/02 06:08:03;;;;;;;9.30;5.93;;;10.60;87.70;;;;;;4967310;28;20442;-76
2021/04/02 06:10:30;;;;;;;8.90;6.67;;;10.50;88.90;;;;;;4969217;28;20461;-77
2021/04/02 06:12:57;;;;;;;10.57;7.00;;;10.50;89.60;;;;;;4968527;28;20951;-77
2021/04/02 06:15:23;;;;;;;7.60;6.80;;;10.50;89.70;;;;;;4971223;28;20448;-77
2021/04/02 06:18:09;;;;;;;9.50;6.17;;;10.50;90.40;;;;;;4969124;28;20838;-76
2021/04/02 06:20:41;;;;;;;8.60;7.07;;;10.40;91.20;;;;;;4969332;28;20854;-75
2021/04/02 06:23:16;;;;;;;10.80;6.60;;;10.20;91.90;;;;;;4967834;28;20458;-76
2021/04/02 06:25:54;;;;;;;9.13;6.93;;;10.20;92.70;;;;;;4967261;28;20858;-77
2021/04/02 06:28:28;;;;;;;9.50;6.67;;;10.20;93.20;;;;;;4968072;28;20446;-77
2021/04/02 06:31:12;;;;;;;11.73;7.77;;;10.20;93.60;;;;;;4967496;28;20464;-77
2021/04/02 06:33:50;;;;;;;9.07;7.83;;;10.10;94.20;;;;;;4967327;28;20442;-76
2021/04/02 06:36:23;;;;;;;13.30;7.73;;;10.10;94.90;;;;;;4967922;28;20426;-76
2021/04/02 06:38:55;;;;;;;8.80;6.90;;;10.10;95.60;;;;;;4950156;28;20452;-77
2021/04/02 06:41:24;;;;;;;8.53;7.50;;;10.10;96.20;;;;;;4969131;28;22015;-76
2021/04/02 06:43:51;;;;;;;12.27;8.10;;;10.10;96.50;;;;;;4968810;28;20481;-77
2021/04/02 06:46:24;;;;;;;9.60;7.87;;;10.20;96.70;;;;;;4972774;28;20476;-76
2021/04/02 06:48:53;;;;;;;9.83;7.30;;;10.20;97.20;;;;;;4971457;28;20452;-77
2021/04/02 06:51:21;;;;;;;9.40;7.93;;;10.20;97.30;;;;;;4935696;28;20488;-77
2021/04/02 06:53:54;;;;;;;20.73;7.83;;;10.30;97.30;;;;;;4968327;28;20446;-77
2021/04/02 06:56:22;;;;;;;10.27;8.30;;;10.40;96.80;;;;;;4969047;28;20515;-77
2021/04/02 06:58:50;;;;;;;7.63;6.60;;;10.50;96.60;;;;;;4972221;28;20537;-75
2021/04/02 07:01:16;;;;;;;11.57;8.13;;;10.50;97.10;;;;;;4967566;28;20462;-76
2021/04/02 07:03:44;;;;;;;12.23;7.83;;;10.50;97.10;;;;;;4965074;28;20805;-77
2021/04/02 07:06:11;;;;;;;9.30;8.27;;;10.60;96.80;;;;;;4963516;28;20475;-77
2021/04/02 07:08:44;;;;;;;13.23;8.20;;;10.70;97.30;;;;;;4963960;28;20433;-76
2021/04/02 07:11:10;;;;;;;9.93;7.23;;;10.70;96.90;;;;;;4963966;28;20497;-78
2021/04/02 07:13:47;;;;;;;9.53;8.20;;;10.80;96.20;;;;;;4965023;28;20826;-77
2021/04/02 07:16:15;;;;;;;13.03;7.80;;;10.80;95.90;;;;;;4964438;28;21219;-76
2021/04/02 07:18:45;;;;;;;11.63;8.07;;;10.80;95.70;;;;;;4965966;28;20453;-76
2021/04/02 07:21:11;;;;;;;9.80;8.40;;;10.90;95.40;;;;;;4945942;28;20846;-75
2021/04/02 07:23:39;;;;;;;9.70;8.17;;;10.90;94.70;;;;;;4958240;28;20506;-77
2021/04/02 07:26:06;;;;;;;9.60;8.30;;;10.90;94.00;;;;;;4960806;28;20514;-76
2021/04/02 07:28:32;;;;;;;12.27;8.50;;;11.00;93.40;;;;;;4964181;28;20983;-76
2021/04/02 07:30:58;;;;;;;10.40;7.00;;;10.90;93.10;;;;;;4961030;28;20532;-77
2021/04/02 07:33:25;;;;;;;10.33;8.80;;;10.90;93.20;;;;;;4964863;28;20442;-77
2021/04/02 07:36:05;;;;;;;9.83;8.27;;;10.90;93.30;;;;;;4964355;28;20512;-76
2021/04/02 07:38:34;;;;;;;9.70;7.93;;;11.00;93.20;;;;;;4962545;28;21841;-75
2021/04/02 07:41:08;;;;;;;9.23;7.73;;;11.20;92.50;;;;;;4963572;28;20466;-76
2021/04/02 07:43:36;;;;;;;8.77;7.17;;;11.20;91.70;;;;;;4962790;28;20429;-75
2021/04/02 07:46:15;;;;;;;9.70;7.90;;;11.20;90.60;;;;;;4966670;28;20564;-76
2021/04/02 07:48:41;;;;;;;8.67;7.80;;;11.30;90.60;;;;;;4946980;28;20450;-77
2021/04/02 07:51:07;;;;;;;11.57;7.70;;;11.20;90.70;;;;;;4963446;28;20473;-77
2021/04/02 07:53:33;;;;;;;16.30;7.90;;;11.30;90.70;;;;;;4964259;28;20529;-76
2021/04/02 07:56:15;;;;;;;8.73;7.80;;;11.30;90.50;;;;;;4947462;28;20800;-77
2021/04/02 07:58:47;;;;;;;8.80;7.57;;;11.30;90.60;;;;;;4963007;28;20199;-77
2021/04/02 08:01:15;;;;;;;13.03;9.53;;;11.40;90.40;;;;;;4962606;28;20480;-76
2021/04/02 08:03:43;;;;;;;9.37;7.53;;;11.60;90.00;;;;;;4961756;28;20484;-76
2021/04/02 08:06:11;;;;;;;10.27;8.47;;;11.60;90.00;;;;;;4944661;28;20569;-76
2021/04/02 08:08:45;;;;;;;10.60;8.63;;;11.60;90.00;;;;;;4963533;28;21846;-77
2021/04/02 08:11:20;;;;;;;8.83;7.47;;;11.70;89.20;;;;;;4962841;28;21770;-76
2021/04/02 08:14:00;;;;;;;12.07;8.50;;;11.70;89.60;;;;;;4960440;28;20894;-77
2021/04/02 08:16:43;;;;;;;14.40;8.60;;;11.80;89.00;;;;;;4940749;28;20986;-77
2021/04/02 08:19:21;;;;;;;9.10;8.20;;;12.00;88.60;;;;;;4956423;28;20461;-75
2021/04/02 08:21:51;;;;;;;9.17;8.17;;;12.00;87.80;;;;;;4965925;28;20527;-76
2021/04/02 08:24:20;;;;;;;9.83;7.53;;;12.10;87.20;;;;;;4966970;28;20520;-75
2021/04/02 08:26:47;;;;;;;12.63;9.13;;;12.20;85.70;;;;;;4971517;28;20477;-75
2021/04/02 08:29:14;;;;;;;10.67;7.70;;;12.40;84.70;;;;;;4971368;28;20808;-76
2021/04/02 08:31:45;;;;;;;8.03;7.17;;;12.50;83.90;;;;;;4968744;28;20463;-76
2021/04/02 08:34:14;;;;;;;11.40;9.47;;;12.60;83.50;;;;;;4971092;28;20434;-75
2021/04/02 08:36:40;;;;;;;8.10;7.30;;;12.70;83.60;;;;;;4971335;28;21035;-76
2021/04/02 08:39:07;;;;;;;10.20;8.73;;;12.80;82.20;;;;;;4971601;28;20442;-77
2021/04/02 08:41:33;;;;;;;8.30;7.10;;;12.80;81.80;;;;;;4970890;28;20519;-76
2021/04/02 08:44:00;;;;;;;10.00;7.63;;;12.80;79.80;;;;;;4953383;28;20537;-77
2021/04/02 08:46:44;;;;;;;9.40;8.50;;;12.70;80.00;;;;;;4970891;28;20503;-75
2021/04/02 08:49:13;;;;;;;9.20;8.00;;;12.80;80.30;;;;;;4971132;28;20457;-77
2021/04/02 08:51:39;;;;;;;9.50;8.03;;;12.90;80.20;;;;;;4969231;28;20534;-76
2021/04/02 08:54:11;;;;;;;8.43;7.53;;;13.20;79.60;;;;;;4971425;28;20445;-76
2021/04/02 08:56:36;;;;;;;9.03;7.97;;;13.60;77.80;;;;;;4953876;28;20451;-76
2021/04/02 08:59:07;;;;;;;9.83;8.07;;;14.10;76.00;;;;;;4970421;28;20441;-75
2021/04/02 09:01:33;;;;;;;8.70;7.80;;;14.80;73.60;;;;;;4970568;28;20248;-77
2021/04/02 09:03:59;;;;;;;9.40;8.50;;;16.20;70.20;;;;;;4970539;28;20548;-77
2021/04/02 09:06:25;;;;;;;14.23;8.23;;;17.80;64.80;;;;;;4937149;28;20488;-75
2021/04/02 09:08:51;;;;;;;9.13;8.40;;;19.30;57.90;;;;;;4971424;28;20185;-75
2021/04/02 09:11:17;;;;;;;10.77;9.33;;;21.00;55.00;;;;;;4970689;28;20899;-75
2021/04/02 09:13:44;;;;;;;9.17;8.27;;;22.20;53.70;;;;;;4970505;28;20202;-77
2021/04/02 09:16:14;;;;;;;9.80;8.90;;;23.70;49.40;;;;;;4972228;28;20206;-77
2021/04/02 09:18:56;;;;;;;10.07;9.07;;;23.70;47.80;;;;;;4970357;28;20440;-78
2021/04/02 09:21:24;;;;;;;8.90;8.00;;;25.40;45.50;;;;;;4969428;28;20449;-75
2021/04/02 09:23:53;;;;;;;10.10;9.17;;;25.30;43.70;;;;;;4971736;28;20444;-76
2021/04/02 09:26:20;;;;;;;8.60;7.90;;;25.40;42.60;;;;;;4971715;28;20564;-77
2021/04/02 09:28:47;;;;;;;10.00;9.10;;;25.10;42.10;;;;;;4968927;28;21031;-78
2021/04/02 09:31:19;;;;;;;9.93;9.03;;;23.60;42.00;;;;;;4966132;28;20473;-76
2021/04/02 09:33:47;;;;;;;8.90;8.00;;;22.90;43.40;;;;;;4964807;28;20448;-78
2021/04/02 09:36:13;;;;;;;8.87;8.10;;;21.80;44.50;;;;;;4968995;28;20461;-78
2021/04/02 09:38:41;;;;;;;10.70;7.77;;;21.40;45.30;;;;;;4970715;28;20508;-76
2021/04/02 09:41:06;;;;;;;10.07;9.13;;;23.30;45.40;;;;;;4970309;28;20552;-76
2021/04/02 09:43:51;;;;;;;9.80;8.90;;;22.70;43.30;;;;;;4969584;28;20452;-77
2021/04/02 09:46:30;;;;;;;9.37;8.57;;;21.20;43.80;;;;;;4969594;28;20232;-76
2021/04/02 09:49:02;;;;;;;8.93;8.00;;;20.20;45.40;;;;;;4973580;28;20516;-78
2021/04/02 09:51:27;;;;;;;9.03;8.10;;;19.30;46.40;;;;;;4973717;28;20437;-76
2021/04/02 09:53:53;;;;;;;8.73;7.83;;;18.80;46.20;;;;;;4973474;28;20559;-76
2021/04/02 09:56:19;;;;;;;11.37;8.30;;;20.50;45.60;;;;;;4972092;28;20206;-77
2021/04/02 09:58:44;;;;;;;8.53;7.83;;;20.50;44.20;;;;;;4953767;28;20554;-77
2021/04/02 10:01:10;;;;;;;8.67;7.83;;;21.10;43.70;;;;;;4970002;28;20296;-76
2021/04/02 10:03:37;;;;;;;9.37;8.43;;;21.90;44.50;;;;;;4971247;28;20198;-76
2021/04/02 10:06:03;;;;;;;9.60;8.70;;;23.40;43.90;;;;;;4970012;28;20213;-75
2021/04/02 10:08:28;;;;;;;8.97;8.03;;;23.00;42.10;;;;;;4969031;28;20497;-75
2021/04/02 10:10:54;;;;;;;8.93;8.10;;;22.10;43.00;;;;;;4969594;28;20571;-75
2021/04/02 10:13:20;;;;;;;9.37;8.43;;;21.50;43.30;;;;;;4968186;28;20199;-76
2021/04/02 10:15:45;;;;;;;9.67;8.17;;;20.80;44.40;;;;;;4951315;28;20459;-77
2021/04/02 10:18:11;;;;;;;9.73;8.73;;;20.30;44.90;;;;;;4970635;28;20201;-74
2021/04/02 10:20:37;;;;;;;9.37;8.57;;;19.80;44.60;;;;;;4968593;28;20237;-76
2021/04/02 10:23:02;;;;;;;8.70;8.00;;;19.60;45.70;;;;;;4963930;28;20202;-77
2021/04/02 10:25:28;;;;;;;8.93;8.13;;;19.80;45.60;;;;;;4968250;28;20309;-76
2021/04/02 10:27:53;;;;;;;9.73;8.80;;;20.60;45.90;;;;;;4950600;28;20195;-75
2021/04/02 10:30:20;;;;;;;10.53;9.63;;;21.30;44.90;;;;;;4970656;28;20214;-76
2021/04/02 10:32:45;;;;;;;9.20;8.30;;;21.90;43.30;;;;;;4967753;28;20715;-76
2021/04/02 10:35:12;;;;;;;9.00;8.30;;;22.30;42.90;;;;;;4969274;28;20561;-76
2021/04/02 10:37:37;;;;;;;9.50;8.47;;;22.30;41.40;;;;;;4969302;28;20202;-76
2021/04/02 10:40:04;;;;;;;9.93;8.67;;;22.40;41.60;;;;;;4969636;28;21164;-76
2021/04/02 10:42:29;;;;;;;8.90;8.10;;;23.10;42.10;;;;;;4966928;28;20213;-74
2021/04/02 10:44:55;;;;;;;9.37;8.47;;;24.20;42.00;;;;;;4969499;28;21234;-75
2021/04/02 10:47:21;;;;;;;9.07;8.17;;;25.40;40.60;;;;;;4970256;28;20193;-76
2021/04/02 10:49:46;;;;;;;8.87;8.10;;;25.60;39.60;;;;;;4965724;28;20712;-76
2021/04/02 10:52:12;;;;;;;10.33;9.23;;;24.60;39.30;;;;;;4940618;28;20541;-73
2021/04/02 10:54:38;;;;;;;8.57;7.77;;;23.60;39.30;;;;;;4961324;28;20335;-75
2021/04/02 10:57:04;;;;;;;8.83;8.13;;;23.10;39.80;;;;;;4964081;28;20461;-74
2021/04/02 10:59:30;;;;;;;8.97;8.07;;;22.90;39.70;;;;;;4947129;28;20616;-75
2021/04/02 11:01:56;;;;;;;12.53;9.10;;;22.80;40.30;;;;;;4963267;28;20439;-75
2021/04/02 11:04:21;;;;;;;9.63;8.47;;;22.80;41.10;;;;;;4967613;28;20191;-75
2021/04/02 11:06:47;;;;;;;9.53;7.97;;;22.90;40.20;;;;;;4966033;28;20218;-75
2021/04/02 11:09:12;;;;;;;9.60;8.70;;;23.80;41.10;;;;;;4967311;28;20222;-75
2021/04/02 11:11:38;;;;;;;8.73;8.00;;;25.00;39.30;;;;;;4965362;28;20195;-76
2021/04/02 11:14:04;;;;;;;9.27;8.30;;;26.40;39.20;;;;;;4964402;28;20566;-74
2021/04/02 11:16:29;;;;;;;10.17;9.27;;;28.20;37.30;;;;;;4964387;28;20195;-75
2021/04/02 11:18:57;;;;;;;8.33;7.53;;;29.50;35.50;;;;;;4965626;28;20620;-74
2021/04/02 11:21:23;;;;;;;8.70;8.00;;;30.50;34.00;;;;;;4966748;28;20277;-74
2021/04/02 11:23:49;;;;;;;8.23;7.63;;;31.40;32.30;;;;;;4962086;28;21258;-76
2021/04/02 11:26:15;;;;;;;9.43;8.67;;;31.90;31.20;;;;;;4965491;28;20238;-74
2021/04/02 11:28:41;;;;;;;10.20;7.60;;;30.70;30.20;;;;;;4963134;28;20249;-74
2021/04/02 11:31:06;;;;;;;9.67;8.27;;;30.70;31.10;;;;;;4960532;28;20492;-77
2021/04/02 11:33:32;;;;;;;8.03;7.47;;;30.80;30.90;;;;;;4964185;28;20191;-75
2021/04/02 11:35:58;;;;;;;9.17;8.17;;;31.40;30.80;;;;;;4963011;28;20266;-74
2021/04/02 11:38:24;;;;;;;10.63;8.03;;;32.10;30.50;;;;;;4964877;28;20286;-74
2021/04/02 11:40:50;;;;;;;8.90;8.10;;;32.10;29.60;;;;;;4962940;28;21172;-75
2021/04/02 11:43:15;;;;;;;9.43;8.53;;;30.80;29.90;;;;;;4966008;28;20234;-76
2021/04/02 11:45:41;;;;;;;8.70;8.00;;;30.50;30.30;;;;;;4965674;28;20210;-76
2021/04/02 11:48:07;;;;;;;8.50;7.80;;;30.20;30.00;;;;;;4961593;28;20230;-76
2021/04/02 11:50:33;;;;;;;9.40;8.50;;;31.10;30.00;;;;;;4965075;28;20206;-75
2021/04/02 11:52:58;;;;;;;8.60;7.80;;;31.70;29.50;;;;;;4959861;28;20955;-74
2021/04/02 11:55:24;;;;;;;8.50;7.90;;;32.10;29.40;;;;;;4964775;28;20650;-76
2021/04/02 11:57:49;;;;;;;8.20;7.50;;;32.90;29.30;;;;;;4965013;28;20202;-76
2021/04/02 12:00:17;;;;;;;8.80;8.10;;;33.60;28.50;;;;;;4965185;28;20233;-75
2021/04/02 12:02:43;;;;;;;8.40;7.80;;;33.90;27.70;;;;;;4965186;28;20246;-75
2021/04/02 12:05:10;;;;;;;9.83;9.13;;;33.80;27.60;;;;;;4964706;28;20405;-75
2021/04/02 12:07:36;;;;;;;8.80;8.10;;;33.00;27.40;;;;;;4949359;28;20444;-76
2021/04/02 12:10:04;;;;;;;8.07;7.40;;;33.00;28.00;;;;;;4961296;28;20468;-75
2021/04/02 12:12:30;;;;;;;8.10;7.50;;;34.20;28.20;;;;;;4964226;28;20424;-75
2021/04/02 12:14:55;;;;;;;8.40;7.80;;;34.30;27.70;;;;;;4965166;28;20527;-76
2021/04/02 12:17:21;;;;;;;8.60;7.90;;;34.40;27.00;;;;;;4967976;28;20194;-75
2021/04/02 12:19:47;;;;;;;8.50;7.80;;;33.80;27.50;;;;;;4963110;28;20249;-76
2021/04/02 12:22:13;;;;;;;8.40;6.97;;;33.40;27.30;;;;;;4964747;28;20733;-75
2021/04/02 12:24:38;;;;;;;8.70;8.00;;;32.40;27.70;;;;;;4963544;28;20918;-75
2021/04/02 12:27:07;;;;;;;8.87;8.27;;;31.90;27.90;;;;;;4965563;28;20218;-74
2021/04/02 12:29:33;;;;;;;8.40;7.70;;;31.80;27.90;;;;;;4947724;28;20214;-75
2021/04/02 12:31:59;;;;;;;7.70;7.10;;;32.00;28.50;;;;;;4964097;28;20974;-75
2021/04/02 12:34:25;;;;;;;8.40;7.70;;;32.50;28.30;;;;;;4965608;28;20513;-76
2021/04/02 12:36:51;;;;;;;8.17;7.57;;;31.80;27.50;;;;;;4965352;28;20195;-75
2021/04/02 12:39:16;;;;;;;8.03;7.33;;;30.70;28.60;;;;;;4966468;28;20222;-76
2021/04/02 12:41:42;;;;;;;8.37;7.77;;;31.20;28.60;;;;;;4962681;28;20730;-78
2021/04/02 12:44:07;;;;;;;9.00;8.30;;;32.60;28.30;;;;;;4964646;28;20294;-76
2021/04/02 12:46:33;;;;;;;7.97;7.37;;;33.90;27.50;;;;;;4946259;28;20222;-75
2021/04/02 12:48:59;;;;;;;8.40;7.80;;;34.00;27.00;;;;;;4946983;28;20260;-74